createdAt,value
2022-08-25T00:00:16.378Z,70.89
2022-08-25T00:04:13.204Z,70.72
2022-08-25T00:08:01.386Z,68.74
2022-08-25T00:11:41.945Z,69.35
2022-08-25T00:15:29.820Z,69.53
2022-08-25T00:19:15.962Z,70.35
2022-08-25T00:22:55.904Z,67.13
2022-08-25T00:26:37.071Z,65.27
2022-08-25T00:30:23.561Z,66.97
2022-08-25T00:34:04.012Z,68.73
2022-08-25T00:37:53.935Z,69.54
2022-08-25T00:41:41.431Z,67.90
2022-08-25T00:45:29.088Z,68.39
2022-08-25T00:49:22.474Z,67.53
2022-08-25T00:53:12.808Z,66.45
2022-08-25T00:57:00.433Z,66.42
2022-08-25T01:00:51.025Z,66.80
2022-08-25T01:04:31.253Z,65.81
2022-08-25T01:08:19.237Z,65.95
2022-08-25T01:12:00.833Z,68.15
2022-08-25T01:15:41.057Z,70.04
2022-08-25T01:19:28.750Z,69.02
2022-08-25T01:23:16.423Z,68.79
2022-08-25T01:27:03.031Z,68.81
2022-08-25T01:30:50.772Z,69.69
2022-08-25T01:34:38.148Z,71.85
2022-08-25T01:38:25.827Z,73.96
2022-08-25T01:42:12.023Z,75.32
2022-08-25T01:45:53.322Z,74.82
2022-08-25T01:49:43.368Z,74.82
2022-08-25T01:53:40.295Z,77.69
2022-08-25T01:57:27.800Z,77.26
2022-08-25T02:01:15.808Z,77.66
2022-08-25T02:05:03.451Z,78.72
2022-08-25T02:08:52.161Z,77.61
2022-08-25T02:12:39.695Z,78.78
2022-08-25T02:16:19.433Z,79.03
2022-08-25T02:20:06.938Z,78.94
2022-08-25T02:23:54.439Z,77.91
2022-08-25T02:27:40.568Z,77.50
2022-08-25T02:31:20.093Z,77.24
2022-08-25T02:35:06.154Z,77.10
2022-08-25T02:38:53.736Z,76.73
2022-08-25T02:42:42.774Z,77.16
2022-08-25T02:46:30.371Z,77.13
2022-08-25T02:50:18.049Z,78.24
2022-08-25T02:54:05.635Z,79.40
2022-08-25T02:57:52.238Z,79.72
2022-08-25T03:01:31.365Z,78.59
2022-08-25T03:05:19.420Z,78.04
2022-08-25T03:08:59.601Z,80.56
2022-08-25T03:12:47.245Z,79.90
2022-08-25T03:16:34.520Z,79.28
2022-08-25T03:20:12.647Z,79.72
2022-08-25T03:24:00.134Z,80.01
2022-08-25T03:27:47.981Z,79.64
2022-08-25T03:31:28.101Z,81.57
2022-08-25T03:35:15.687Z,80.31
2022-08-25T03:39:03.208Z,78.35
2022-08-25T03:42:50.940Z,76.53
2022-08-25T03:46:41.298Z,77.31
2022-08-25T03:50:28.948Z,76.71
2022-08-25T03:54:16.987Z,74.85
2022-08-25T03:58:04.816Z,73.68
2022-08-25T04:01:54.779Z,73.28
2022-08-25T04:05:39.313Z,74.50
2022-08-25T04:09:26.626Z,75.82
2022-08-25T04:13:06.613Z,77.20
2022-08-25T04:16:39.546Z,79.03
2022-08-25T04:20:20.013Z,78.88
2022-08-25T04:23:57.502Z,79.06
2022-08-25T04:27:44.886Z,80.16
2022-08-25T04:31:24.389Z,83.06
2022-08-25T04:34:47.400Z,81.79
2022-08-25T04:38:16.832Z,81.87
2022-08-25T04:42:04.492Z,81.90
2022-08-25T04:45:41.930Z,82.04
2022-08-25T04:48:43.594Z,83.34
2022-08-25T04:52:16.359Z,83.33
2022-08-25T04:55:45.793Z,81.81
2022-08-25T04:59:34.975Z,81.52
2022-08-25T05:03:22.668Z,80.95
2022-08-25T05:07:00.235Z,79.35
2022-08-25T05:10:47.555Z,80.27
2022-08-25T05:14:26.310Z,79.22
2022-08-25T05:18:14.461Z,77.87
2022-08-25T05:22:02.002Z,77.08
2022-08-25T05:25:49.534Z,78.28
2022-08-25T05:29:37.242Z,77.81
2022-08-25T05:33:24.680Z,77.34
2022-08-25T05:37:12.757Z,77.19
2022-08-25T05:40:53.171Z,75.95
2022-08-25T05:44:40.839Z,75.10
2022-08-25T05:48:28.480Z,73.99
2022-08-25T05:52:20.051Z,74.19
2022-08-25T05:56:06.986Z,74.40
2022-08-25T05:59:37.799Z,72.42
2022-08-25T06:03:21.025Z,69.81
2022-08-25T06:06:51.566Z,70.84
2022-08-25T06:10:31.761Z,70.76
2022-08-25T06:14:12.910Z,69.01
2022-08-25T06:17:41.507Z,69.76
2022-08-25T06:21:29.613Z,68.19
2022-08-25T06:25:17.410Z,67.24
2022-08-25T06:29:05.614Z,65.81
2022-08-25T06:32:53.778Z,65.75
2022-08-25T06:36:41.700Z,65.61
2022-08-25T06:40:29.516Z,64.56
2022-08-25T06:44:17.159Z,64.82
2022-08-25T06:48:05.031Z,64.80
2022-08-25T06:51:52.731Z,61.40
2022-08-25T06:55:40.268Z,61.33
2022-08-25T06:59:32.011Z,61.41
2022-08-25T07:03:27.493Z,61.45
2022-08-25T07:07:15.470Z,60.45
2022-08-25T07:11:03.449Z,59.59
2022-08-25T07:15:09.996Z,57.00
2022-08-25T07:19:00.245Z,54.82
2022-08-25T07:22:48.007Z,53.41
2022-08-25T07:26:38.501Z,51.09
2022-08-25T07:30:26.773Z,51.99
2022-08-25T07:34:05.714Z,51.44
2022-08-25T07:37:52.186Z,50.69
2022-08-25T07:41:34.012Z,50.83
2022-08-25T07:45:21.810Z,49.49
2022-08-25T07:49:09.139Z,49.90
2022-08-25T07:53:04.308Z,50.49
2022-08-25T07:56:52.309Z,51.25
2022-08-25T08:00:39.538Z,51.41
2022-08-25T08:04:29.921Z,50.26
2022-08-25T08:08:19.027Z,50.77
2022-08-25T08:12:09.670Z,49.42
2022-08-25T08:15:57.357Z,49.16
2022-08-25T08:19:45.496Z,49.35
2022-08-25T08:23:33.215Z,51.33
2022-08-25T08:27:20.732Z,48.52
2022-08-25T08:31:10.639Z,47.90
2022-08-25T08:34:57.038Z,48.14
2022-08-25T08:38:30.621Z,49.57
2022-08-25T08:42:42.718Z,48.92
2022-08-25T08:46:39.534Z,50.71
2022-08-25T08:50:50.647Z,48.62
2022-08-25T08:54:39.296Z,49.16
2022-08-25T08:58:29.072Z,48.42
2022-08-25T09:02:16.786Z,49.68
2022-08-25T09:06:24.657Z,49.97
2022-08-25T09:10:12.182Z,50.38
2022-08-25T09:14:08.735Z,49.84
2022-08-25T09:18:02.289Z,50.00
2022-08-25T09:21:47.155Z,49.56
2022-08-25T09:25:53.153Z,48.51
2022-08-25T09:29:42.037Z,46.04
2022-08-25T09:33:35.522Z,45.42
2022-08-25T09:37:23.904Z,46.16
2022-08-25T09:41:11.028Z,44.62
2022-08-25T09:45:05.367Z,44.05
2022-08-25T09:49:02.275Z,45.40
2022-08-25T09:53:17.257Z,45.03
2022-08-25T09:57:05.411Z,44.77
2022-08-25T10:01:02.766Z,43.96
2022-08-25T10:04:53.343Z,42.94
2022-08-25T10:08:37.090Z,44.03
2022-08-25T10:12:27.911Z,43.50
2022-08-25T10:16:20.479Z,44.17
2022-08-25T10:20:12.783Z,41.36
2022-08-25T10:23:51.950Z,41.01
2022-08-25T10:27:35.681Z,39.70
2022-08-25T10:31:34.966Z,38.14
2022-08-25T10:35:34.664Z,38.36
2022-08-25T10:39:33.849Z,39.99
2022-08-25T10:43:25.754Z,40.11
2022-08-25T10:47:16.932Z,41.03
2022-08-25T10:51:04.900Z,39.98
2022-08-25T10:55:11.471Z,40.99
2022-08-25T10:59:22.817Z,40.39
2022-08-25T11:03:08.233Z,40.02
2022-08-25T11:06:56.153Z,39.64
2022-08-25T11:10:45.357Z,39.72
2022-08-25T11:14:37.111Z,40.63
2022-08-25T11:18:33.702Z,40.47
2022-08-25T11:22:39.339Z,39.84
2022-08-25T11:26:14.453Z,40.72
2022-08-25T11:30:01.368Z,40.77
2022-08-25T11:33:53.125Z,40.19
2022-08-25T11:37:41.165Z,39.23
2022-08-25T11:41:49.074Z,39.22
2022-08-25T11:45:33.839Z,39.73
2022-08-25T11:49:21.924Z,40.11
2022-08-25T11:52:55.822Z,40.35
2022-08-25T11:56:49.219Z,42.13
2022-08-25T12:00:52.372Z,42.67
2022-08-25T12:04:55.177Z,41.96
2022-08-25T12:08:52.507Z,41.47
2022-08-25T12:12:40.580Z,41.29
2022-08-25T12:16:24.325Z,43.34
2022-08-25T12:20:30.783Z,43.67
2022-08-25T12:24:18.825Z,42.46
2022-08-25T12:28:09.516Z,40.70
2022-08-25T12:31:56.368Z,40.08
2022-08-25T12:36:05.402Z,40.11
2022-08-25T12:39:55.853Z,40.89
2022-08-25T12:43:46.880Z,39.80
2022-08-25T12:47:33.038Z,40.14
2022-08-25T12:51:20.519Z,40.45
2022-08-25T12:55:04.122Z,40.96
2022-08-25T12:59:02.235Z,40.48
2022-08-25T13:03:00.843Z,39.49
2022-08-25T13:06:54.324Z,41.90
2022-08-25T13:10:57.175Z,42.76
2022-08-25T13:14:57.416Z,40.83
2022-08-25T13:18:53.327Z,39.81
2022-08-25T13:22:38.361Z,41.19
2022-08-25T13:26:23.377Z,41.31
2022-08-25T13:30:16.149Z,40.11
2022-08-25T13:34:19.359Z,39.74
2022-08-25T13:38:06.990Z,39.18
2022-08-25T13:41:57.415Z,39.54
2022-08-25T13:45:41.432Z,39.61
2022-08-25T13:49:32.450Z,41.18
2022-08-25T13:53:30.404Z,41.97
2022-08-25T13:57:30.878Z,43.00
2022-08-25T14:01:47.770Z,42.46
2022-08-25T14:05:40.384Z,41.95
2022-08-25T14:09:35.514Z,41.92
2022-08-25T14:13:31.368Z,40.80
2022-08-25T14:17:36.334Z,41.93
2022-08-25T14:21:26.263Z,42.50
2022-08-25T14:24:46.693Z,41.71
2022-08-25T14:28:07.274Z,42.72
2022-08-25T14:31:55.023Z,43.02
2022-08-25T14:35:41.849Z,44.77
2022-08-25T14:39:11.149Z,43.49
2022-08-25T14:43:02.426Z,43.38
2022-08-25T14:46:29.303Z,43.22
2022-08-25T14:50:20.834Z,43.56
2022-08-25T14:54:09.054Z,42.58
2022-08-25T14:57:59.804Z,42.19
2022-08-25T15:01:50.102Z,41.65
2022-08-25T15:05:41.523Z,42.78
2022-08-25T15:09:33.291Z,43.48
2022-08-25T15:13:21.683Z,43.94
2022-08-25T15:17:05.061Z,43.24
2022-08-25T15:20:54.949Z,43.31
2022-08-25T15:24:43.094Z,43.30
2022-08-25T15:28:32.642Z,43.04
2022-08-25T15:32:21.068Z,43.44
2022-08-25T15:36:06.682Z,42.57
2022-08-25T15:39:54.998Z,42.55
2022-08-25T15:43:44.970Z,43.82
2022-08-25T15:47:25.874Z,44.35
2022-08-25T15:51:13.593Z,44.32
2022-08-25T15:54:01.753Z,43.32
2022-08-25T15:57:29.524Z,42.52
2022-08-25T16:01:16.395Z,41.98
2022-08-25T16:05:07.160Z,42.54
2022-08-25T16:08:55.420Z,43.05
2022-08-25T16:12:37.955Z,44.75
2022-08-25T16:16:28.284Z,45.32
2022-08-25T16:20:15.992Z,45.03
2022-08-25T16:24:07.436Z,45.06
2022-08-25T16:27:48.388Z,44.71
2022-08-25T16:31:33.703Z,44.07
2022-08-25T16:35:21.818Z,44.93
2022-08-25T16:39:09.867Z,45.15
2022-08-25T16:42:37.776Z,45.28
2022-08-25T16:46:13.914Z,44.95
2022-08-25T16:50:02.039Z,44.76
2022-08-25T16:53:48.995Z,45.35
2022-08-25T16:57:37.115Z,45.23
2022-08-25T17:01:25.235Z,45.19
2022-08-25T17:05:13.417Z,44.92
2022-08-25T17:08:53.477Z,44.94
2022-08-25T17:12:41.333Z,44.90
2022-08-25T17:16:29.035Z,44.66
2022-08-25T17:20:19.217Z,44.74
2022-08-25T17:24:07.176Z,45.35
2022-08-25T17:27:32.259Z,44.58
2022-08-25T17:31:20.003Z,43.66
2022-08-25T17:35:01.042Z,44.41
2022-08-25T17:38:25.551Z,45.20
2022-08-25T17:42:02.636Z,45.52
2022-08-25T17:45:50.420Z,46.32
2022-08-25T17:49:30.077Z,47.19
2022-08-25T17:53:17.742Z,47.73
2022-08-25T17:56:59.140Z,47.52
2022-08-25T18:00:47.286Z,47.83
2022-08-25T18:04:35.511Z,48.19
2022-08-25T18:08:32.315Z,49.10
2022-08-25T18:12:23.247Z,49.68
2022-08-25T18:15:45.435Z,49.53
2022-08-25T18:19:29.808Z,48.99
2022-08-25T18:23:17.410Z,49.34
2022-08-25T18:26:56.176Z,50.35
2022-08-25T18:30:26.258Z,50.44
2022-08-25T18:34:15.490Z,49.77
2022-08-25T18:37:55.000Z,49.94
2022-08-25T18:41:32.389Z,51.22
2022-08-25T18:45:20.611Z,51.54
2022-08-25T18:49:07.534Z,52.23
2022-08-25T18:52:12.791Z,52.00
2022-08-25T18:56:03.797Z,51.41
2022-08-25T18:59:42.753Z,51.03
2022-08-25T19:02:30.510Z,51.53
2022-08-25T19:06:05.323Z,51.79
2022-08-25T19:09:10.352Z,51.00
2022-08-25T19:12:36.912Z,51.10
2022-08-25T19:16:14.055Z,51.97
2022-08-25T19:20:11.237Z,53.00
2022-08-25T19:23:27.289Z,54.07
2022-08-25T19:27:15.728Z,54.88
2022-08-25T19:30:54.467Z,54.92
2022-08-25T19:34:33.825Z,55.01
2022-08-25T19:38:33.586Z,54.98
2022-08-25T19:42:36.792Z,56.18
2022-08-25T19:46:21.077Z,56.44
2022-08-25T19:50:07.622Z,57.28
2022-08-25T19:53:57.176Z,57.47
2022-08-25T19:57:42.827Z,57.85
2022-08-25T20:01:18.191Z,58.66
2022-08-25T20:04:56.183Z,60.66
2022-08-25T20:08:44.443Z,62.30
2022-08-25T20:12:32.449Z,62.67
2022-08-25T20:16:20.360Z,60.89
2022-08-25T20:20:08.471Z,58.98
2022-08-25T20:23:45.133Z,59.57
2022-08-25T20:27:33.041Z,61.29
2022-08-25T20:31:14.621Z,62.98
2022-08-25T20:34:58.356Z,63.86
2022-08-25T20:38:46.275Z,63.77
2022-08-25T20:42:26.282Z,63.67
2022-08-25T20:46:14.941Z,63.40
2022-08-25T20:50:07.006Z,65.54
2022-08-25T20:53:46.817Z,65.23
2022-08-25T20:57:33.900Z,65.20
2022-08-25T21:01:23.074Z,63.99
2022-08-25T21:05:11.112Z,64.13
2022-08-25T21:09:00.559Z,64.96
2022-08-25T21:12:48.479Z,64.30
2022-08-25T21:16:41.051Z,63.92
2022-08-25T21:20:30.118Z,61.75
2022-08-25T21:24:16.685Z,59.92
2022-08-25T21:27:56.864Z,59.56
2022-08-25T21:31:41.050Z,59.61
2022-08-25T21:35:34.598Z,60.88
2022-08-25T21:39:22.367Z,60.99
2022-08-25T21:43:02.523Z,62.56
2022-08-25T21:46:53.934Z,63.66
2022-08-25T21:50:47.501Z,63.62
2022-08-25T21:54:35.206Z,65.45
2022-08-25T21:58:22.807Z,65.44
2022-08-25T22:02:10.735Z,65.84
2022-08-25T22:05:49.105Z,65.73
2022-08-25T22:09:36.762Z,65.47
2022-08-25T22:13:25.180Z,65.22
2022-08-25T22:17:16.506Z,65.55
2022-08-25T22:20:57.804Z,65.83
2022-08-25T22:24:45.741Z,66.40
2022-08-25T22:28:24.294Z,67.06
2022-08-25T22:32:13.843Z,67.35
2022-08-25T22:36:01.713Z,67.24
2022-08-25T22:39:50.383Z,67.32
2022-08-25T22:43:30.824Z,67.44
2022-08-25T22:47:19.417Z,67.18
2022-08-25T22:51:07.260Z,66.22
2022-08-25T22:54:52.575Z,66.81
2022-08-25T22:58:39.561Z,67.79
2022-08-25T23:02:26.003Z,68.67
2022-08-25T23:06:22.221Z,70.18
2022-08-25T23:10:12.926Z,69.62
2022-08-25T23:14:00.071Z,70.17
2022-08-25T23:17:39.682Z,70.54
2022-08-25T23:21:26.079Z,71.60
2022-08-25T23:25:15.143Z,72.79
2022-08-25T23:29:07.799Z,72.17
2022-08-25T23:33:06.441Z,72.95
2022-08-25T23:37:03.680Z,73.25
2022-08-25T23:40:51.541Z,74.20
2022-08-25T23:44:25.701Z,73.56
2022-08-25T23:48:13.490Z,74.19
2022-08-25T23:52:08.003Z,74.22
2022-08-25T23:55:56.172Z,74.77
2022-08-25T23:59:44.528Z,74.59
